sensor_id;sensor_type;location;lat;lon;timestamp;pressure;altitude;pressure_sealevel;temperature;humidity
51099;BME280;37146;48.210;16.234;2023-01-27T00:00:11;98946.41;;;-1.42;100.00
51099;BME280;37146;48.210;16.234;2023-01-27T00:02:37;98936.84;;;-1.49;100.00
51099;BME280;37146;48.210;16.234;2023-01-27T00:05:03;98935.97;;;-1.51;100.00
51099;BME280;37146;48.210;16.234;2023-01-27T00:07:28;98931.53;;;-1.36;100.00
51099;BME280;37146;48.210;16.234;2023-01-27T00:09:53;98935.91;;;-1.37;100.00
51099;BME280;37146;48.210;16.234;2023-01-27T00:12:20;98939.41;;;-1.43;100.00
51099;BME280;37146;48.210;16.234;2023-01-27T00:15:04;98929.81;;;-1.48;100.00
51099;BME280;37146;48.210;16.234;2023-01-27T00:17:30;98921.97;;;-1.47;100.00
51099;BME280;37146;48.210;16.234;2023-01-27T00:19:55;98921.13;;;-1.53;100.00
51099;BME280;37146;48.210;16.234;2023-01-27T00:22:20;98929.00;;;-1.55;100.00
51099;BME280;37146;48.210;16.234;2023-01-27T00:25:04;98925.47;;;-1.48;100.00
51099;BME280;37146;48.210;16.234;2023-01-27T00:27:30;98935.13;;;-1.51;100.00
51099;BME280;37146;48.210;16.234;2023-01-27T00:29:55;98931.56;;;-1.41;100.00
51099;BME280;37146;48.210;16.234;2023-01-27T00:32:21;98933.34;;;-1.49;100.00
51099;BME280;37146;48.210;16.234;2023-01-27T00:35:04;98934.25;;;-1.55;100.00
51099;BME280;37146;48.210;16.234;2023-01-27T00:37:30;98932.47;;;-1.47;100.00
51099;BME280;37146;48.210;16.234;2023-01-27T00:39:55;98935.13;;;-1.62;100.00
51099;BME280;37146;48.210;16.234;2023-01-27T00:42:20;98934.22;;;-1.52;100.00
51099;BME280;37146;48.210;16.234;2023-01-27T00:44:45;98930.72;;;-1.45;100.00
51099;BME280;37146;48.210;16.234;2023-01-27T00:47:31;98941.22;;;-1.48;100.00
51099;BME280;37146;48.210;16.234;2023-01-27T00:49:56;98940.34;;;-1.44;100.00
51099;BME280;37146;48.210;16.234;2023-01-27T00:52:21;98934.16;;;-1.40;100.00
51099;BME280;37146;48.210;16.234;2023-01-27T00:54:46;98937.72;;;-1.44;100.00
51099;BME280;37146;48.210;16.234;2023-01-27T00:57:11;98933.28;;;-1.34;100.00
51099;BME280;37146;48.210;16.234;2023-01-27T00:59:37;98940.28;;;-1.41;100.00
51099;BME280;37146;48.210;16.234;2023-01-27T01:02:02;98944.72;;;-1.46;100.00
51099;BME280;37146;48.210;16.234;2023-01-27T01:04:27;98942.03;;;-1.36;100.00
51099;BME280;37146;48.210;16.234;2023-01-27T01:06:52;98937.69;;;-1.48;100.00
51099;BME280;37146;48.210;16.234;2023-01-27T01:09:17;98948.22;;;-1.50;100.00
51099;BME280;37146;48.210;16.234;2023-01-27T01:11:43;98945.53;;;-1.41;100.00
51099;BME280;37146;48.210;16.234;2023-01-27T01:14:08;98949.03;;;-1.32;100.00
51099;BME280;37146;48.210;16.234;2023-01-27T01:16:33;98941.16;;;-1.32;100.00
51099;BME280;37146;48.210;16.234;2023-01-27T01:18:58;98940.31;;;-1.39;100.00
51099;BME280;37146;48.210;16.234;2023-01-27T01:21:24;98939.38;;;-1.30;100.00
51099;BME280;37146;48.210;16.234;2023-01-27T01:23:49;98942.00;;;-1.30;100.00
51099;BME280;37146;48.210;16.234;2023-01-27T01:26:14;98950.78;;;-1.37;100.00
51099;BME280;37146;48.210;16.234;2023-01-27T01:28:40;98949.91;;;-1.36;100.00
51099;BME280;37146;48.210;16.234;2023-01-27T01:31:06;98943.78;;;-1.34;100.00
51099;BME280;37146;48.210;16.234;2023-01-27T01:33:31;98946.41;;;-1.32;100.00
51099;BME280;37146;48.210;16.234;2023-01-27T01:36:01;98949.03;;;-1.32;100.00
51099;BME280;37146;48.210;16.234;2023-01-27T01:38:27;98947.25;;;-1.30;100.00
51099;BME280;37146;48.210;16.234;2023-01-27T01:40:52;98936.78;;;-1.35;100.00
51099;BME280;37146;48.210;16.234;2023-01-27T01:43:17;98943.75;;;-1.31;100.00
51099;BME280;37146;48.210;16.234;2023-01-27T01:48:16;98934.13;;;-1.30;100.00
51099;BME280;37146;48.210;16.234;2023-01-27T01:50:43;98932.38;;;-1.31;100.00
51099;BME280;37146;48.210;16.234;2023-01-27T01:53:10;98931.56;;;-1.38;100.00
51099;BME280;37146;48.210;16.234;2023-01-27T01:55:36;98933.31;;;-1.40;100.00
51099;BME280;37146;48.210;16.234;2023-01-27T01:58:02;98928.91;;;-1.36;100.00
51099;BME280;37146;48.210;16.234;2023-01-27T02:00:28;98930.66;;;-1.35;100.00
51099;BME280;37146;48.210;16.234;2023-01-27T02:02:53;98929.81;;;-1.41;100.00
51099;BME280;37146;48.210;16.234;2023-01-27T02:05:26;98935.03;;;-1.36;100.00
51099;BME280;37146;48.210;16.234;2023-01-27T02:08:03;98922.78;;;-1.37;100.00
51099;BME280;37146;48.210;16.234;2023-01-27T02:10:32;98930.66;;;-1.32;100.00
51099;BME280;37146;48.210;16.234;2023-01-27T02:12:57;98921.03;;;-1.33;100.00
51099;BME280;37146;48.210;16.234;2023-01-27T02:15:22;98914.94;;;-1.38;100.00
51099;BME280;37146;48.210;16.234;2023-01-27T02:17:48;98920.19;;;-1.38;100.00
51099;BME280;37146;48.210;16.234;2023-01-27T02:28:09;98908.81;;;-1.37;100.00
51099;BME280;37146;48.210;16.234;2023-01-27T02:30:34;98909.66;;;-1.32;100.00
51099;BME280;37146;48.210;16.234;2023-01-27T02:32:59;98914.09;;;-1.44;100.00
51099;BME280;37146;48.210;16.234;2023-01-27T02:35:35;98907.94;;;-1.43;100.00
51099;BME280;37146;48.210;16.234;2023-01-27T02:38:02;98916.69;;;-1.42;100.00
51099;BME280;37146;48.210;16.234;2023-01-27T02:40:27;98904.44;;;-1.42;100.00
51099;BME280;37146;48.210;16.234;2023-01-27T02:42:54;98903.59;;;-1.44;100.00
51099;BME280;37146;48.210;16.234;2023-01-27T02:45:20;98896.59;;;-1.45;100.00
51099;BME280;37146;48.210;16.234;2023-01-27T02:47:45;98890.44;;;-1.41;100.00
51099;BME280;37146;48.210;16.234;2023-01-27T02:50:10;98893.94;;;-1.42;100.00
51099;BME280;37146;48.210;16.234;2023-01-27T02:52:35;98894.00;;;-1.51;100.00
51099;BME280;37146;48.210;16.234;2023-01-27T02:55:00;98889.63;;;-1.52;100.00
51099;BME280;37146;48.210;16.234;2023-01-27T02:57:26;98892.22;;;-1.47;100.00
51099;BME280;37146;48.210;16.234;2023-01-27T02:59:51;98889.63;;;-1.46;100.00
51099;BME280;37146;48.210;16.234;2023-01-27T03:02:16;98883.44;;;-1.38;100.00
51099;BME280;37146;48.210;16.234;2023-01-27T03:04:46;98885.25;;;-1.44;100.00
51099;BME280;37146;48.210;16.234;2023-01-27T03:07:12;98887.00;;;-1.49;100.00
51099;BME280;37146;48.210;16.234;2023-01-27T03:09:37;98887.84;;;-1.48;100.00
51099;BME280;37146;48.210;16.234;2023-01-27T03:12:02;98885.25;;;-1.47;100.00
51099;BME280;37146;48.210;16.234;2023-01-27T03:14:49;98887.84;;;-1.48;100.00
51099;BME280;37146;48.210;16.234;2023-01-27T03:17:33;98888.75;;;-1.48;100.00
51099;BME280;37146;48.210;16.234;2023-01-27T03:20:17;98887.00;;;-1.52;100.00
51099;BME280;37146;48.210;16.234;2023-01-27T03:22:43;98887.84;;;-1.45;100.00
51099;BME280;37146;48.210;16.234;2023-01-27T03:25:08;98889.59;;;-1.47;100.00
51099;BME280;37146;48.210;16.234;2023-01-27T03:27:34;98885.25;;;-1.47;100.00
51099;BME280;37146;48.210;16.234;2023-01-27T03:29:59;98886.13;;;-1.48;100.00
51099;BME280;37146;48.210;16.234;2023-01-27T03:32:25;98878.28;;;-1.49;100.00
51099;BME280;37146;48.210;16.234;2023-01-27T03:34:51;98881.75;;;-1.46;100.00
51099;BME280;37146;48.210;16.234;2023-01-27T03:37:16;98879.13;;;-1.52;100.00
51099;BME280;37146;48.210;16.234;2023-01-27T03:40:00;98880.84;;;-1.42;100.00
51099;BME280;37146;48.210;16.234;2023-01-27T03:42:44;98878.28;;;-1.52;100.00
51099;BME280;37146;48.210;16.234;2023-01-27T03:45:28;98876.50;;;-1.52;100.00
51099;BME280;37146;48.210;16.234;2023-01-27T03:48:12;98873.91;;;-1.50;100.00
51099;BME280;37146;48.210;16.234;2023-01-27T03:50:37;98868.69;;;-1.55;100.00
51099;BME280;37146;48.210;16.234;2023-01-27T03:53:07;98870.41;;;-1.52;100.00
51099;BME280;37146;48.210;16.234;2023-01-27T03:55:33;98875.66;;;-1.49;100.00
51099;BME280;37146;48.210;16.234;2023-01-27T03:57:59;98866.88;;;-1.47;100.00
51099;BME280;37146;48.210;16.234;2023-01-27T04:00:43;98866.03;;;-1.52;100.00
51099;BME280;37146;48.210;16.234;2023-01-27T04:03:09;98873.03;;;-1.54;100.00
51099;BME280;37146;48.210;16.234;2023-01-27T04:05:53;98872.13;;;-1.50;100.00
51099;BME280;37146;48.210;16.234;2023-01-27T04:08:36;98874.81;;;-1.56;100.00
51099;BME280;37146;48.210;16.234;2023-01-27T04:11:02;98872.19;;;-1.56;100.00
51099;BME280;37146;48.210;16.234;2023-01-27T04:13:46;98869.56;;;-1.56;100.00
51099;BME280;37146;48.210;16.234;2023-01-27T04:16:12;98880.03;;;-1.58;100.00
51099;BME280;37146;48.210;16.234;2023-01-27T04:18:37;98887.00;;;-1.52;100.00
51099;BME280;37146;48.210;16.234;2023-01-27T04:21:02;98883.50;;;-1.54;100.00
51099;BME280;37146;48.210;16.234;2023-01-27T04:23:28;98887.00;;;-1.52;100.00
51099;BME280;37146;48.210;16.234;2023-01-27T04:25:53;98882.63;;;-1.50;100.00
51099;BME280;37146;48.210;16.234;2023-01-27T04:28:20;98873.91;;;-1.50;100.00
51099;BME280;37146;48.210;16.234;2023-01-27T04:30:45;98884.44;;;-1.61;100.00
51099;BME280;37146;48.210;16.234;2023-01-27T04:33:11;98887.00;;;-1.49;100.00
51099;BME280;37146;48.210;16.234;2023-01-27T04:35:41;98886.13;;;-1.48;100.00
51099;BME280;37146;48.210;16.234;2023-01-27T04:38:07;98888.75;;;-1.51;100.00
51099;BME280;37146;48.210;16.234;2023-01-27T04:40:32;98888.78;;;-1.49;100.00
51099;BME280;37146;48.210;16.234;2023-01-27T04:42:57;98879.13;;;-1.49;100.00
51099;BME280;37146;48.210;16.234;2023-01-27T04:45:23;98875.63;;;-1.46;100.00
51099;BME280;37146;48.210;16.234;2023-01-27T04:47:48;98877.38;;;-1.50;100.00
51099;BME280;37146;48.210;16.234;2023-01-27T04:50:13;98883.50;;;-1.51;100.00
51099;BME280;37146;48.210;16.234;2023-01-27T04:52:38;98885.25;;;-1.50;100.00
51099;BME280;37146;48.210;16.234;2023-01-27T04:55:04;98886.13;;;-1.48;100.00
51099;BME280;37146;48.210;16.234;2023-01-27T04:57:29;98889.66;;;-1.58;100.00
51099;BME280;37146;48.210;16.234;2023-01-27T04:59:54;98880.94;;;-1.63;100.00
51099;BME280;37146;48.210;16.234;2023-01-27T05:02:19;98880.03;;;-1.54;100.00
51099;BME280;37146;48.210;16.234;2023-01-27T05:04:44;98886.16;;;-1.59;100.00
51099;BME280;37146;48.210;16.234;2023-01-27T05:07:10;98887.00;;;-1.52;100.00
51099;BME280;37146;48.210;16.234;2023-01-27T05:09:35;98888.75;;;-1.54;100.00
51099;BME280;37146;48.210;16.234;2023-01-27T05:12:00;98880.88;;;-1.54;100.00
51099;BME280;37146;48.210;16.234;2023-01-27T05:14:25;98878.31;;;-1.57;100.00
51099;BME280;37146;48.210;16.234;2023-01-27T05:16:51;98878.25;;;-1.51;100.00
51099;BME280;37146;48.210;16.234;2023-01-27T05:19:16;98881.75;;;-1.52;100.00
51099;BME280;37146;48.210;16.234;2023-01-27T05:21:41;98874.78;;;-1.54;100.00
51099;BME280;37146;48.210;16.234;2023-01-27T05:24:08;98874.78;;;-1.51;100.00
51099;BME280;37146;48.210;16.234;2023-01-27T05:26:33;98880.06;;;-1.56;100.00
51099;BME280;37146;48.210;16.234;2023-01-27T05:28:59;98883.50;;;-1.54;100.00
51099;BME280;37146;48.210;16.234;2023-01-27T05:31:25;98880.06;;;-1.59;100.00
51099;BME280;37146;48.210;16.234;2023-01-27T05:33:52;98887.03;;;-1.55;100.00
51099;BME280;37146;48.210;16.234;2023-01-27T05:36:18;98881.81;;;-1.61;100.00
51099;BME280;37146;48.210;16.234;2023-01-27T05:38:43;98885.31;;;-1.62;100.00
51099;BME280;37146;48.210;16.234;2023-01-27T05:41:09;98887.06;;;-1.61;100.00
51099;BME280;37146;48.210;16.234;2023-01-27T05:43:36;98889.72;;;-1.67;100.00
51099;BME280;37146;48.210;16.234;2023-01-27T05:48:27;98894.03;;;-1.60;100.00
51099;BME280;37146;48.210;16.234;2023-01-27T05:50:53;98892.31;;;-1.61;100.00
51099;BME280;37146;48.210;16.234;2023-01-27T05:53:18;98886.19;;;-1.63;100.00
51099;BME280;37146;48.210;16.234;2023-01-27T05:55:43;98886.19;;;-1.57;100.00
51099;BME280;37146;48.210;16.234;2023-01-27T05:58:08;98887.06;;;-1.64;100.00
51099;BME280;37146;48.210;16.234;2023-01-27T06:00:34;98888.81;;;-1.60;100.00
51099;BME280;37146;48.210;16.234;2023-01-27T06:02:59;98891.44;;;-1.63;100.00
51099;BME280;37146;48.210;16.234;2023-01-27T06:05:24;98893.19;;;-1.61;100.00
51099;BME280;37146;48.210;16.234;2023-01-27T06:07:49;98899.28;;;-1.59;100.00
51099;BME280;37146;48.210;16.234;2023-01-27T06:10:15;98894.03;;;-1.60;100.00
51099;BME280;37146;48.210;16.234;2023-01-27T06:12:40;98893.16;;;-1.58;100.00
51099;BME280;37146;48.210;16.234;2023-01-27T06:15:05;98902.78;;;-1.58;100.00
51099;BME280;37146;48.210;16.234;2023-01-27T06:17:30;98903.66;;;-1.58;100.00
51099;BME280;37146;48.210;16.234;2023-01-27T06:19:56;98901.03;;;-1.59;100.00
51099;BME280;37146;48.210;16.234;2023-01-27T06:22:21;98910.63;;;-1.60;100.00
51099;BME280;37146;48.210;16.234;2023-01-27T06:24:46;98902.78;;;-1.61;100.00
51099;BME280;37146;48.210;16.234;2023-01-27T06:27:11;98905.44;;;-1.63;100.00
51099;BME280;37146;48.210;16.234;2023-01-27T06:29:36;98901.94;;;-1.62;100.00
51099;BME280;37146;48.210;16.234;2023-01-27T06:32:02;98910.66;;;-1.61;100.00
51099;BME280;37146;48.210;16.234;2023-01-27T06:34:27;98910.66;;;-1.55;100.00
51099;BME280;37146;48.210;16.234;2023-01-27T06:36:52;98907.13;;;-1.56;100.00
51099;BME280;37146;48.210;16.234;2023-01-27T06:39:18;98906.25;;;-1.54;100.00
51099;BME280;37146;48.210;16.234;2023-01-27T06:41:43;98899.28;;;-1.60;100.00
51099;BME280;37146;48.210;16.234;2023-01-27T06:44:08;98904.50;;;-1.51;100.00
51099;BME280;37146;48.210;16.234;2023-01-27T06:46:33;98894.91;;;-1.57;100.00
51099;BME280;37146;48.210;16.234;2023-01-27T06:48:59;98901.03;;;-1.62;100.00
51099;BME280;37146;48.210;16.234;2023-01-27T06:51:24;98908.06;;;-1.66;100.00
51099;BME280;37146;48.210;16.234;2023-01-27T06:53:49;98909.81;;;-1.66;100.00
51099;BME280;37146;48.210;16.234;2023-01-27T06:56:14;98918.53;;;-1.58;100.00
51099;BME280;37146;48.210;16.234;2023-01-27T06:58:40;98917.63;;;-1.59;100.00
51099;BME280;37146;48.210;16.234;2023-01-27T07:01:05;98915.91;;;-1.63;100.00
51099;BME280;37146;48.210;16.234;2023-01-27T07:03:31;98915.94;;;-1.66;100.00
51099;BME280;37146;48.210;16.234;2023-01-27T07:05:56;98924.66;;;-1.56;100.00
51099;BME280;37146;48.210;16.234;2023-01-27T07:08:21;98917.66;;;-1.60;100.00
51099;BME280;37146;48.210;16.234;2023-01-27T07:10:46;98914.19;;;-1.64;100.00
51099;BME280;37146;48.210;16.234;2023-01-27T07:13:12;98909.78;;;-1.60;100.00
51099;BME280;37146;48.210;16.234;2023-01-27T07:15:38;98922.03;;;-1.62;100.00
51099;BME280;37146;48.210;16.234;2023-01-27T07:18:03;98925.47;;;-1.54;100.00
51099;BME280;37146;48.210;16.234;2023-01-27T07:20:29;98924.63;;;-1.58;100.00
51099;BME280;37146;48.210;16.234;2023-01-27T07:23:01;98930.75;;;-1.52;100.00
51099;BME280;37146;48.210;16.234;2023-01-27T07:25:27;98929.00;;;-1.57;100.00
51099;BME280;37146;48.210;16.234;2023-01-27T07:27:53;98934.25;;;-1.53;100.00
51099;BME280;37146;48.210;16.234;2023-01-27T07:30:18;98937.72;;;-1.53;100.00
51099;BME280;37146;48.210;16.234;2023-01-27T07:32:43;98937.72;;;-1.53;100.00
51099;BME280;37146;48.210;16.234;2023-01-27T07:35:08;98936.03;;;-1.66;100.00
51099;BME280;37146;48.210;16.234;2023-01-27T07:37:34;98935.13;;;-1.54;100.00
51099;BME280;37146;48.210;16.234;2023-01-27T07:39:59;98939.47;;;-1.52;100.00
51099;BME280;37146;48.210;16.234;2023-01-27T07:42:24;98948.22;;;-1.58;100.00
51099;BME280;37146;48.210;16.234;2023-01-27T07:44:49;98945.63;;;-1.59;100.00
51099;BME280;37146;48.210;16.234;2023-01-27T07:47:15;98948.25;;;-1.56;100.00
51099;BME280;37146;48.210;16.234;2023-01-27T07:49:40;98946.50;;;-1.57;100.00
51099;BME280;37146;48.210;16.234;2023-01-27T07:52:05;98938.63;;;-1.56;100.00
51099;BME280;37146;48.210;16.234;2023-01-27T07:54:30;98941.22;;;-1.48;100.00
51099;BME280;37146;48.210;16.234;2023-01-27T07:56:58;98944.72;;;-1.50;100.00
51099;BME280;37146;48.210;16.234;2023-01-27T07:59:23;98940.31;;;-1.48;100.00
51099;BME280;37146;48.210;16.234;2023-01-27T08:01:48;98948.22;;;-1.50;100.00
51099;BME280;37146;48.210;16.234;2023-01-27T08:04:14;98960.44;;;-1.46;100.00
51099;BME280;37146;48.210;16.234;2023-01-27T08:06:39;98944.72;;;-1.49;100.00
51099;BME280;37146;48.210;16.234;2023-01-27T08:09:04;98957.81;;;-1.46;100.00
51099;BME280;37146;48.210;16.234;2023-01-27T08:11:30;98954.28;;;-1.42;100.00
51099;BME280;37146;48.210;16.234;2023-01-27T08:13:55;98956.00;;;-1.31;100.00
51099;BME280;37146;48.210;16.234;2023-01-27T08:16:20;98949.91;;;-1.33;100.00
51099;BME280;37146;48.210;16.234;2023-01-27T08:18:45;98954.31;;;-1.40;100.00
51099;BME280;37146;48.210;16.234;2023-01-27T08:21:11;98957.75;;;-1.32;100.00
51099;BME280;37146;48.210;16.234;2023-01-27T08:23:36;98954.25;;;-1.28;100.00
51099;BME280;37146;48.210;16.234;2023-01-27T08:26:02;98955.16;;;-1.36;100.00
51099;BME280;37146;48.210;16.234;2023-01-27T08:28:28;98965.63;;;-1.30;100.00
51099;BME280;37146;48.210;16.234;2023-01-27T08:31:03;98965.59;;;-1.24;100.00
51099;BME280;37146;48.210;16.234;2023-01-27T08:33:28;98960.38;;;-1.35;100.00
51099;BME280;37146;48.210;16.234;2023-01-27T08:35:53;98955.13;;;-1.30;100.00
51099;BME280;37146;48.210;16.234;2023-01-27T08:38:18;98966.47;;;-1.27;100.00
51099;BME280;37146;48.210;16.234;2023-01-27T08:40:45;98962.97;;;-1.26;100.00
51099;BME280;37146;48.210;16.234;2023-01-27T08:43:10;98962.97;;;-1.22;100.00
51099;BME280;37146;48.210;16.234;2023-01-27T08:45:36;98962.06;;;-1.17;100.00
51099;BME280;37146;48.210;16.234;2023-01-27T08:48:01;98963.84;;;-1.22;100.00
51099;BME280;37146;48.210;16.234;2023-01-27T08:50:27;98976.06;;;-1.22;100.00
51099;BME280;37146;48.210;16.234;2023-01-27T08:52:54;98977.81;;;-1.17;100.00
51099;BME280;37146;48.210;16.234;2023-01-27T08:55:23;98978.69;;;-1.21;100.00
51099;BME280;37146;48.210;16.234;2023-01-27T08:57:48;98979.56;;;-1.17;100.00
51099;BME280;37146;48.210;16.234;2023-01-27T09:00:13;98977.84;;;-1.29;100.00
51099;BME280;37146;48.210;16.234;2023-01-27T09:02:38;98975.25;;;-1.28;100.00
51099;BME280;37146;48.210;16.234;2023-01-27T09:05:04;98982.22;;;-1.22;100.00
51099;BME280;37146;48.210;16.234;2023-01-27T09:07:29;98983.03;;;-1.14;100.00
51099;BME280;37146;48.210;16.234;2023-01-27T09:09:54;98989.19;;;-1.19;100.00
51099;BME280;37146;48.210;16.234;2023-01-27T09:12:20;98983.03;;;-1.14;100.00
51099;BME280;37146;48.210;16.234;2023-01-27T09:14:45;98979.56;;;-1.19;100.00
51099;BME280;37146;48.210;16.234;2023-01-27T09:17:10;98974.31;;;-1.19;100.00
51099;BME280;37146;48.210;16.234;2023-01-27T09:19:35;98984.81;;;-1.19;100.00
51099;BME280;37146;48.210;16.234;2023-01-27T09:22:01;98982.19;;;-1.19;100.00
51099;BME280;37146;48.210;16.234;2023-01-27T09:24:26;98977.78;;;-1.14;100.00
51099;BME280;37146;48.210;16.234;2023-01-27T09:26:51;98978.69;;;-1.15;100.00
51099;BME280;37146;48.210;16.234;2023-01-27T09:29:16;98979.53;;;-1.13;100.00
51099;BME280;37146;48.210;16.234;2023-01-27T09:31:41;98978.66;;;-1.13;100.00
51099;BME280;37146;48.210;16.234;2023-01-27T09:34:07;98974.31;;;-1.19;100.00
51099;BME280;37146;48.210;16.234;2023-01-27T09:36:32;98976.06;;;-1.19;100.00
51099;BME280;37146;48.210;16.234;2023-01-27T09:39:03;98976.97;;;-1.23;100.00
51099;BME280;37146;48.210;16.234;2023-01-27T09:46:57;98983.09;;;-1.25;100.00
51099;BME280;37146;48.210;16.234;2023-01-27T10:00:14;98974.28;;;-1.13;100.00
51099;BME280;37146;48.210;16.234;2023-01-27T10:02:52;98973.34;;;-1.01;100.00
51099;BME280;37146;48.210;16.234;2023-01-27T10:08:12;98981.25;;;-1.02;100.00
51099;BME280;37146;48.210;16.234;2023-01-27T10:10:45;98971.63;;;-1.03;100.00
51099;BME280;37146;48.210;16.234;2023-01-27T10:13:15;98967.19;;;-0.98;100.00
51099;BME280;37146;48.210;16.234;2023-01-27T10:20:41;98961.03;;;-0.89;100.00
51099;BME280;37146;48.210;16.234;2023-01-27T10:23:29;98962.81;;;-0.96;100.00
51099;BME280;37146;48.210;16.234;2023-01-27T10:28:28;98959.28;;;-0.89;100.00
51099;BME280;37146;48.210;16.234;2023-01-27T10:31:02;98959.28;;;-0.89;100.00
51099;BME280;37146;48.210;16.234;2023-01-27T10:41:25;98954.91;;;-0.88;100.00
51099;BME280;37146;48.210;16.234;2023-01-27T10:49:18;98958.34;;;-0.79;100.00
51099;BME280;37146;48.210;16.234;2023-01-27T10:52:30;98968.03;;;-0.85;100.00
51099;BME280;37146;48.210;16.234;2023-01-27T10:54:50;98960.19;;;-0.96;100.00
51099;BME280;37146;48.210;16.234;2023-01-27T10:57:32;98955.78;;;-0.93;100.00
51099;BME280;37146;48.210;16.234;2023-01-27T11:05:03;98946.22;;;-1.01;100.00
51099;BME280;37146;48.210;16.234;2023-01-27T11:07:31;98942.66;;;-0.93;100.00
51099;BME280;37146;48.210;16.234;2023-01-27T11:09:58;98952.34;;;-0.99;100.00
51099;BME280;37146;48.210;16.234;2023-01-27T11:12:28;98950.53;;;-0.89;100.00
51099;BME280;37146;48.210;16.234;2023-01-27T11:14:56;98942.72;;;-1.00;100.00
51099;BME280;37146;48.210;16.234;2023-01-27T11:17:43;98945.28;;;-0.93;100.00
51099;BME280;37146;48.210;16.234;2023-01-27T11:22:42;98950.69;;;-1.16;100.00
51099;BME280;37146;48.210;16.234;2023-01-27T11:25:54;98934.88;;;-1.10;100.00
51099;BME280;37146;48.210;16.234;2023-01-27T11:28:05;98943.59;;;-1.01;100.00
51099;BME280;37146;48.210;16.234;2023-01-27T11:30:37;98947.03;;;-0.90;100.00
51099;BME280;37146;48.210;16.234;2023-01-27T11:33:09;98940.91;;;-0.90;100.00
51099;BME280;37146;48.210;16.234;2023-01-27T11:35:37;98938.25;;;-0.86;100.00
51099;BME280;37146;48.210;16.234;2023-01-27T11:38:02;98941.75;;;-0.87;100.00
51099;BME280;37146;48.210;16.234;2023-01-27T11:40:31;98954.88;;;-0.87;100.00
51099;BME280;37146;48.210;16.234;2023-01-27T11:42:58;98943.44;;;-0.75;100.00
51099;BME280;37146;48.210;16.234;2023-01-27T11:45:24;98946.03;;;-0.73;100.00
51099;BME280;37146;48.210;16.234;2023-01-27T11:47:50;98942.53;;;-0.75;100.00
51099;BME280;37146;48.210;16.234;2023-01-27T11:50:17;98941.72;;;-0.81;100.00
51099;BME280;37146;48.210;16.234;2023-01-27T11:52:45;98932.97;;;-0.81;100.00
51099;BME280;37146;48.210;16.234;2023-01-27T11:57:40;98937.31;;;-0.80;100.00
51099;BME280;37146;48.210;16.234;2023-01-27T12:00:11;98941.75;;;-0.84;100.00
51099;BME280;37146;48.210;16.234;2023-01-27T12:02:42;98939.09;;;-0.81;100.00
51099;BME280;37146;48.210;16.234;2023-01-27T12:05:10;98934.84;;;-1.00;100.00
51099;BME280;37146;48.210;16.234;2023-01-27T12:10:25;98937.50;;;-1.03;100.00
51099;BME280;37146;48.210;16.234;2023-01-27T12:12:49;98934.88;;;-1.06;100.00
51099;BME280;37146;48.210;16.234;2023-01-27T12:15:15;98928.81;;;-1.15;100.00
51099;BME280;37146;48.210;16.234;2023-01-27T12:17:54;98933.19;;;-1.14;100.00
51099;BME280;37146;48.210;16.234;2023-01-27T12:22:45;98932.31;;;-1.13;100.00
51099;BME280;37146;48.210;16.234;2023-01-27T12:25:14;98924.44;;;-1.13;100.00
51099;BME280;37146;48.210;16.234;2023-01-27T12:27:47;98926.13;;;-1.05;100.00
51099;BME280;37146;48.210;16.234;2023-01-27T12:30:18;98926.19;;;-1.15;100.00
51099;BME280;37146;48.210;16.234;2023-01-27T12:32:45;98921.75;;;-1.10;100.00
51099;BME280;37146;48.210;16.234;2023-01-27T12:35:46;98925.22;;;-1.01;100.00
51099;BME280;37146;48.210;16.234;2023-01-27T12:38:06;98925.22;;;-1.01;100.00
51099;BME280;37146;48.210;16.234;2023-01-27T12:40:38;98920.84;;;-0.98;100.00
51099;BME280;37146;48.210;16.234;2023-01-27T12:43:07;98912.13;;;-1.06;100.00
51099;BME280;37146;48.210;16.234;2023-01-27T12:45:33;98920.84;;;-0.98;100.00
51099;BME280;37146;48.210;16.234;2023-01-27T12:50:34;98915.63;;;-1.02;100.00
51099;BME280;37146;48.210;16.234;2023-01-27T12:53:10;98919.06;;;-0.94;100.00
51099;BME280;37146;48.210;16.234;2023-01-27T12:58:30;98915.66;;;-1.13;100.00
51099;BME280;37146;48.210;16.234;2023-01-27T13:00:56;98911.25;;;-1.10;100.00
51099;BME280;37146;48.210;16.234;2023-01-27T13:03:23;98917.41;;;-1.09;100.00
51099;BME280;37146;48.210;16.234;2023-01-27T13:05:51;98911.25;;;-1.03;100.00
51099;BME280;37146;48.210;16.234;2023-01-27T13:08:16;98910.34;;;-0.98;100.00
51099;BME280;37146;48.210;16.234;2023-01-27T13:10:50;98917.34;;;-1.03;100.00
51099;BME280;37146;48.210;16.234;2023-01-27T13:13:17;98906.00;;;-1.10;100.00
51099;BME280;37146;48.210;16.234;2023-01-27T13:15:51;98908.66;;;-1.08;100.00
51099;BME280;37146;48.210;16.234;2023-01-27T13:18:18;98913.88;;;-1.05;100.00
51099;BME280;37146;48.210;16.234;2023-01-27T13:20:47;98907.69;;;-0.96;100.00
51099;BME280;37146;48.210;16.234;2023-01-27T13:25:41;98908.50;;;-0.88;100.00
51099;BME280;37146;48.210;16.234;2023-01-27T13:28:09;98909.44;;;-0.98;100.00
51099;BME280;37146;48.210;16.234;2023-01-27T13:30:42;98909.47;;;-1.01;100.00
51099;BME280;37146;48.210;16.234;2023-01-27T13:36:01;98914.72;;;-1.03;100.00
51099;BME280;37146;48.210;16.234;2023-01-27T13:38:39;98916.50;;;-1.06;100.00
51099;BME280;37146;48.210;16.234;2023-01-27T13:41:09;98916.47;;;-0.99;100.00
51099;BME280;37146;48.210;16.234;2023-01-27T13:43:37;98912.13;;;-1.06;100.00
51099;BME280;37146;48.210;16.234;2023-01-27T13:46:15;98913.91;;;-1.14;100.00
51099;BME280;37146;48.210;16.234;2023-01-27T13:48:47;98917.38;;;-1.06;100.00
51099;BME280;37146;48.210;16.234;2023-01-27T13:51:15;98913.88;;;-1.06;100.00
51099;BME280;37146;48.210;16.234;2023-01-27T13:53:42;98918.16;;;-0.93;100.00
51099;BME280;37146;48.210;16.234;2023-01-27T13:58:49;98912.06;;;-0.98;100.00
51099;BME280;37146;48.210;16.234;2023-01-27T14:09:20;98904.31;;;-1.17;100.00
51099;BME280;37146;48.210;16.234;2023-01-27T14:17:09;98933.09;;;-1.03;100.00